TRA28U LOWI-EHAM
Flight info
| Callsign | TRA28U |
|---|---|
| Flight time | 1h 20m |
| Altitude | 36000 |
| Route | KOGOL M726 KEMES DCT GASKA DCT MAPOX DCT NORKU |
| Aircraft | B738/M-SDE2E3FGHIRWXY/LB1 |
Departure
| Time | 2026-05-05 11:58 |
|---|---|
| Airport | Innsbruck Airport (LOWI) |
Arrival
| Time | 2026-05-05 13:18 |
|---|---|
| Airport | Amsterdam Airport Schiphol (EHAM) |
| Time | Latitude | Longitude | Altitude | Speed | Heading |
|---|---|---|---|---|---|
| 2026-05-05 11:41 | 47.25831 | 11.35110 | 1903 ft | 0 kts | 172° |
| 2026-05-05 11:47 | 47.25839 | 11.35108 | 1890 ft | 4 kts | 171° |
| 2026-05-05 11:48 | 47.25881 | 11.35104 | 1901 ft | 4 kts | 236° |
| 2026-05-05 11:48 | 47.25888 | 11.35137 | 1889 ft | 4 kts | 261° |
| 2026-05-05 11:48 | 47.25890 | 11.35153 | 1894 ft | 0 kts | 261° |
| 2026-05-05 11:52 | 47.25885 | 11.35106 | 1900 ft | 8 kts | 260° |
| 2026-05-05 11:52 | 47.25875 | 11.35019 | 1898 ft | 9 kts | 259° |
| 2026-05-05 11:52 | 47.25865 | 11.34924 | 1896 ft | 13 kts | 263° |
| 2026-05-05 11:52 | 47.25849 | 11.34786 | 1890 ft | 13 kts | 260° |
| 2026-05-05 11:53 | 47.25835 | 11.34653 | 1897 ft | 13 kts | 262° |
| 2026-05-05 11:53 | 47.25817 | 11.34491 | 1898 ft | 18 kts | 261° |
| 2026-05-05 11:53 | 47.25798 | 11.34307 | 1899 ft | 18 kts | 261° |
| 2026-05-05 11:53 | 47.25779 | 11.34131 | 1890 ft | 17 kts | 261° |
| 2026-05-05 11:54 | 47.25782 | 11.33950 | 1894 ft | 21 kts | 292° |
| 2026-05-05 11:54 | 47.25865 | 11.33768 | 1901 ft | 21 kts | 307° |
| 2026-05-05 11:54 | 47.25933 | 11.33586 | 1898 ft | 21 kts | 265° |
| 2026-05-05 11:54 | 47.25911 | 11.33382 | 1900 ft | 20 kts | 260° |
| 2026-05-05 11:55 | 47.25884 | 11.33231 | 1895 ft | 13 kts | 223° |
| 2026-05-05 11:55 | 47.25838 | 11.33140 | 1901 ft | 11 kts | 261° |
| 2026-05-05 11:55 | 47.25847 | 11.33084 | 1896 ft | 3 kts | 322° |
| 2026-05-05 11:55 | 47.25873 | 11.33081 | 1893 ft | 4 kts | 22° |
| 2026-05-05 11:56 | 47.25881 | 11.33107 | 1894 ft | 0 kts | 80° |
| 2026-05-05 11:57 | 47.25881 | 11.33111 | 1895 ft | 8 kts | 80° |
| 2026-05-05 11:57 | 47.25936 | 11.33615 | 1903 ft | 90 kts | 81° |
| 2026-05-05 11:58 | 47.26068 | 11.34870 | 1923 ft | 154 kts | 81° |
| 2026-05-05 11:58 | 47.26263 | 11.36489 | 2613 ft | 166 kts | 82° |
| 2026-05-05 11:58 | 47.26460 | 11.38265 | 3276 ft | 186 kts | 82° |
| 2026-05-05 11:58 | 47.26674 | 11.40188 | 4046 ft | 197 kts | 84° |
| 2026-05-05 11:59 | 47.26887 | 11.42245 | 4478 ft | 213 kts | 84° |
| 2026-05-05 11:59 | 47.27093 | 11.44492 | 4934 ft | 225 kts | 86° |
| 2026-05-05 11:59 | 47.27477 | 11.46776 | 5397 ft | 243 kts | 71° |
| 2026-05-05 11:59 | 47.28215 | 11.49166 | 5697 ft | 270 kts | 66° |
| 2026-05-05 12:00 | 47.29023 | 11.51754 | 6400 ft | 280 kts | 69° |
| 2026-05-05 12:00 | 47.29798 | 11.54421 | 7190 ft | 286 kts | 70° |
| 2026-05-05 12:00 | 47.30579 | 11.57133 | 8048 ft | 289 kts | 71° |
| 2026-05-05 12:00 | 47.31367 | 11.59886 | 8800 ft | 296 kts | 70° |
| 2026-05-05 12:01 | 47.32187 | 11.62705 | 9565 ft | 302 kts | 71° |
| 2026-05-05 12:01 | 47.33009 | 11.65528 | 10284 ft | 307 kts | 70° |
| 2026-05-05 12:01 | 47.33878 | 11.68533 | 10564 ft | 331 kts | 71° |
| 2026-05-05 12:01 | 47.34788 | 11.71780 | 10767 ft | 355 kts | 69° |
| 2026-05-05 12:02 | 47.35771 | 11.75199 | 11219 ft | 367 kts | 69° |
| 2026-05-05 12:02 | 47.36813 | 11.78671 | 11819 ft | 375 kts | 68° |
| 2026-05-05 12:02 | 47.38210 | 11.81966 | 12402 ft | 385 kts | 47° |
| 2026-05-05 12:02 | 47.40415 | 11.84153 | 13254 ft | 385 kts | 20° |
| 2026-05-05 12:03 | 47.43040 | 11.84736 | 13992 ft | 383 kts | 354° |
| 2026-05-05 12:03 | 47.45653 | 11.83998 | 14654 ft | 384 kts | 339° |
| 2026-05-05 12:03 | 47.48046 | 11.82267 | 15238 ft | 385 kts | 322° |
| 2026-05-05 12:03 | 47.49965 | 11.79544 | 15830 ft | 383 kts | 302° |
| 2026-05-05 12:04 | 47.51245 | 11.76113 | 16534 ft | 381 kts | 292° |
| 2026-05-05 12:04 | 47.52363 | 11.72521 | 17047 ft | 389 kts | 292° |
| 2026-05-05 12:04 | 47.53446 | 11.68821 | 17581 ft | 394 kts | 290° |
| 2026-05-05 12:04 | 47.54557 | 11.65096 | 18203 ft | 398 kts | 291° |
| 2026-05-05 12:05 | 47.55685 | 11.61345 | 18787 ft | 400 kts | 291° |
| 2026-05-05 12:05 | 47.56818 | 11.57582 | 19353 ft | 402 kts | 291° |
| 2026-05-05 12:05 | 47.57973 | 11.53788 | 19895 ft | 405 kts | 291° |
| 2026-05-05 12:05 | 47.59141 | 11.49982 | 20461 ft | 408 kts | 291° |
| 2026-05-05 12:06 | 47.60330 | 11.46146 | 20990 ft | 411 kts | 294° |
| 2026-05-05 12:06 | 47.62022 | 11.42689 | 21472 ft | 423 kts | 315° |
| 2026-05-05 12:06 | 47.64488 | 11.40264 | 22019 ft | 431 kts | 334° |
| 2026-05-05 12:06 | 47.67391 | 11.39055 | 22498 ft | 439 kts | 352° |
| 2026-05-05 12:07 | 47.70447 | 11.38609 | 22952 ft | 443 kts | 354° |
| 2026-05-05 12:07 | 47.73534 | 11.38289 | 23398 ft | 447 kts | 355° |
| 2026-05-05 12:07 | 47.76649 | 11.37972 | 23789 ft | 450 kts | 354° |
| 2026-05-05 12:07 | 47.79778 | 11.37599 | 24210 ft | 452 kts | 354° |
| 2026-05-05 12:08 | 47.82920 | 11.37181 | 24646 ft | 454 kts | 353° |
| 2026-05-05 12:08 | 47.86072 | 11.36744 | 25043 ft | 457 kts | 353° |
| 2026-05-05 12:08 | 47.89252 | 11.36389 | 25448 ft | 459 kts | 356° |
| 2026-05-05 12:08 | 47.92450 | 11.36137 | 25855 ft | 461 kts | 356° |
| 2026-05-05 12:09 | 47.95619 | 11.35912 | 26206 ft | 464 kts | 356° |
| 2026-05-05 12:09 | 47.98898 | 11.35667 | 26546 ft | 467 kts | 356° |
| 2026-05-05 12:09 | 48.02156 | 11.35401 | 26888 ft | 470 kts | 355° |
| 2026-05-05 12:09 | 48.05425 | 11.35123 | 27238 ft | 472 kts | 355° |
| 2026-05-05 12:10 | 48.08710 | 11.34743 | 27573 ft | 474 kts | 352° |
| 2026-05-05 12:10 | 48.11996 | 11.34138 | 27901 ft | 477 kts | 350° |
| 2026-05-05 12:10 | 48.15289 | 11.33438 | 28195 ft | 480 kts | 350° |
| 2026-05-05 12:10 | 48.18600 | 11.32728 | 28512 ft | 482 kts | 350° |
| 2026-05-05 12:11 | 48.21936 | 11.32045 | 28822 ft | 485 kts | 351° |
| 2026-05-05 12:11 | 48.25286 | 11.31387 | 29131 ft | 487 kts | 351° |
| 2026-05-05 12:11 | 48.28657 | 11.30765 | 29418 ft | 490 kts | 352° |
| 2026-05-05 12:11 | 48.32053 | 11.30220 | 29692 ft | 492 kts | 352° |
| 2026-05-05 12:12 | 48.35423 | 11.29714 | 29992 ft | 493 kts | 352° |
| 2026-05-05 12:12 | 48.38881 | 11.29200 | 30372 ft | 492 kts | 352° |
| 2026-05-05 12:12 | 48.42232 | 11.28694 | 30779 ft | 490 kts | 352° |
| 2026-05-05 12:12 | 48.45661 | 11.28166 | 31173 ft | 488 kts | 352° |
| 2026-05-05 12:13 | 48.49040 | 11.27635 | 31457 ft | 489 kts | 352° |
| 2026-05-05 12:13 | 48.52387 | 11.27105 | 31695 ft | 491 kts | 352° |
| 2026-05-05 12:13 | 48.55781 | 11.26567 | 32082 ft | 489 kts | 351° |
| 2026-05-05 12:13 | 48.59155 | 11.26033 | 32513 ft | 486 kts | 351° |
| 2026-05-05 12:14 | 48.62511 | 11.25501 | 32879 ft | 485 kts | 351° |
| 2026-05-05 12:14 | 48.65861 | 11.24967 | 33171 ft | 485 kts | 351° |
| 2026-05-05 12:14 | 48.69219 | 11.24420 | 33461 ft | 485 kts | 351° |
| 2026-05-05 12:14 | 48.72565 | 11.23868 | 33792 ft | 484 kts | 351° |
| 2026-05-05 12:15 | 48.75910 | 11.23316 | 34104 ft | 482 kts | 351° |
| 2026-05-05 12:15 | 48.79231 | 11.22769 | 34460 ft | 479 kts | 351° |
| 2026-05-05 12:15 | 48.82539 | 11.22225 | 34782 ft | 477 kts | 351° |
| 2026-05-05 12:15 | 48.85843 | 11.21773 | 35040 ft | 478 kts | 355° |
| 2026-05-05 12:16 | 48.89173 | 11.21679 | 35281 ft | 479 kts | 358° |
| 2026-05-05 12:16 | 48.92507 | 11.21742 | 35533 ft | 479 kts | 359° |
| 2026-05-05 12:16 | 48.95831 | 11.21847 | 35797 ft | 478 kts | 359° |
| 2026-05-05 12:16 | 48.99170 | 11.21936 | 35799 ft | 482 kts | 358° |
| 2026-05-05 12:17 | 49.05870 | 11.22026 | 35806 ft | 480 kts | 358° |
| 2026-05-05 12:17 | 49.12497 | 11.22057 | 35805 ft | 474 kts | 357° |
| 2026-05-05 12:18 | 49.19085 | 11.22087 | 35804 ft | 473 kts | 358° |
| 2026-05-05 12:18 | 49.25657 | 11.22132 | 35810 ft | 472 kts | 358° |
| 2026-05-05 12:19 | 49.32228 | 11.22194 | 35801 ft | 472 kts | 358° |
| 2026-05-05 12:19 | 49.38785 | 11.22255 | 35803 ft | 471 kts | 358° |
| 2026-05-05 12:20 | 49.45353 | 11.22314 | 35814 ft | 473 kts | 358° |
| 2026-05-05 12:20 | 49.51921 | 11.22153 | 35793 ft | 470 kts | 348° |
| 2026-05-05 12:21 | 49.55079 | 11.20981 | 35809 ft | 464 kts | 336° |
| 2026-05-05 12:21 | 49.58003 | 11.18966 | 35802 ft | 459 kts | 325° |
| 2026-05-05 12:21 | 49.63127 | 11.13233 | 35809 ft | 455 kts | 317° |
| 2026-05-05 12:22 | 49.67299 | 11.08268 | 35812 ft | 457 kts | 318° |
| 2026-05-05 12:22 | 49.72363 | 11.02297 | 35799 ft | 459 kts | 318° |
| 2026-05-05 12:23 | 49.77452 | 10.96349 | 35806 ft | 459 kts | 318° |
| 2026-05-05 12:23 | 49.82549 | 10.90395 | 35826 ft | 459 kts | 318° |
| 2026-05-05 12:24 | 49.87642 | 10.84431 | 35822 ft | 459 kts | 318° |
| 2026-05-05 12:24 | 49.92738 | 10.78444 | 35826 ft | 459 kts | 318° |
| 2026-05-05 12:25 | 49.97821 | 10.72456 | 35824 ft | 459 kts | 318° |
| 2026-05-05 12:25 | 50.02898 | 10.66457 | 35825 ft | 458 kts | 318° |
| 2026-05-05 12:26 | 50.07957 | 10.60465 | 35825 ft | 457 kts | 318° |
| 2026-05-05 12:26 | 50.13008 | 10.54464 | 35834 ft | 456 kts | 317° |
| 2026-05-05 12:27 | 50.18052 | 10.48454 | 35856 ft | 456 kts | 317° |
| 2026-05-05 12:27 | 50.23090 | 10.42436 | 35843 ft | 456 kts | 317° |
| 2026-05-05 12:28 | 50.28117 | 10.36415 | 35833 ft | 455 kts | 317° |
| 2026-05-05 12:28 | 50.33107 | 10.30424 | 35843 ft | 455 kts | 317° |
| 2026-05-05 12:29 | 50.37679 | 10.23763 | 35853 ft | 445 kts | 306° |
| 2026-05-05 12:29 | 50.41692 | 10.16298 | 35844 ft | 445 kts | 304° |
| 2026-05-05 12:30 | 50.45665 | 10.08842 | 35850 ft | 446 kts | 304° |
| 2026-05-05 12:30 | 50.49648 | 10.01459 | 35850 ft | 446 kts | 305° |
| 2026-05-05 12:31 | 50.53701 | 9.93982 | 35838 ft | 447 kts | 305° |
| 2026-05-05 12:31 | 50.57699 | 9.86599 | 35845 ft | 446 kts | 305° |
| 2026-05-05 12:32 | 50.61723 | 9.79146 | 35857 ft | 447 kts | 304° |
| 2026-05-05 12:32 | 50.65739 | 9.71682 | 35845 ft | 447 kts | 304° |
| 2026-05-05 12:33 | 50.69756 | 9.64194 | 35841 ft | 447 kts | 304° |
| 2026-05-05 12:33 | 50.73769 | 9.56692 | 35844 ft | 447 kts | 304° |
| 2026-05-05 12:34 | 50.77775 | 9.49181 | 35842 ft | 447 kts | 304° |
| 2026-05-05 12:34 | 50.81778 | 9.41655 | 35837 ft | 447 kts | 304° |
| 2026-05-05 12:35 | 50.85777 | 9.34113 | 35834 ft | 448 kts | 304° |
| 2026-05-05 12:35 | 50.89777 | 9.26547 | 35831 ft | 448 kts | 304° |
| 2026-05-05 12:36 | 50.93770 | 9.18973 | 35835 ft | 448 kts | 304° |
| 2026-05-05 12:36 | 50.97756 | 9.11388 | 35827 ft | 448 kts | 304° |
| 2026-05-05 12:37 | 51.01737 | 9.03792 | 35844 ft | 448 kts | 304° |
| 2026-05-05 12:37 | 51.05714 | 8.96179 | 35845 ft | 447 kts | 304° |
| 2026-05-05 12:38 | 51.09680 | 8.88567 | 35823 ft | 447 kts | 303° |
| 2026-05-05 12:38 | 51.13651 | 8.80959 | 35838 ft | 447 kts | 305° |
| 2026-05-05 12:39 | 51.17927 | 8.73703 | 35838 ft | 450 kts | 309° |
| 2026-05-05 12:39 | 51.22328 | 8.66614 | 35835 ft | 450 kts | 309° |
| 2026-05-05 12:40 | 51.26711 | 8.59494 | 35870 ft | 449 kts | 308° |
| 2026-05-05 12:40 | 51.31059 | 8.52334 | 35843 ft | 449 kts | 308° |
| 2026-05-05 12:41 | 51.35385 | 8.45161 | 35845 ft | 448 kts | 308° |
| 2026-05-05 12:41 | 51.39663 | 8.38039 | 35845 ft | 446 kts | 308° |
| 2026-05-05 12:42 | 51.43958 | 8.30871 | 35852 ft | 445 kts | 308° |
| 2026-05-05 12:42 | 51.48242 | 8.23702 | 35858 ft | 445 kts | 308° |
| 2026-05-05 12:43 | 51.52519 | 8.16523 | 35887 ft | 445 kts | 308° |
| 2026-05-05 12:43 | 51.56793 | 8.09329 | 35877 ft | 445 kts | 308° |
| 2026-05-05 12:44 | 51.61060 | 8.02126 | 35876 ft | 445 kts | 308° |
| 2026-05-05 12:44 | 51.65318 | 7.94918 | 35881 ft | 444 kts | 308° |
| 2026-05-05 12:45 | 51.69570 | 7.87699 | 35881 ft | 444 kts | 308° |
| 2026-05-05 12:45 | 51.73811 | 7.80477 | 35882 ft | 443 kts | 308° |
| 2026-05-05 12:46 | 51.78049 | 7.73239 | 35888 ft | 444 kts | 308° |
| 2026-05-05 12:46 | 51.82295 | 7.66013 | 35887 ft | 442 kts | 307° |
| 2026-05-05 12:47 | 51.86474 | 7.58702 | 35902 ft | 442 kts | 308° |
| 2026-05-05 12:47 | 51.90699 | 7.51469 | 35893 ft | 442 kts | 308° |
| 2026-05-05 12:48 | 51.94855 | 7.44332 | 35868 ft | 422 kts | 308° |
| 2026-05-05 12:48 | 51.96836 | 7.40918 | 35895 ft | 409 kts | 308° |
| 2026-05-05 12:48 | 51.98746 | 7.37615 | 35892 ft | 395 kts | 308° |
| 2026-05-05 12:49 | 52.00593 | 7.34411 | 35886 ft | 382 kts | 307° |
| 2026-05-05 12:49 | 52.02387 | 7.31293 | 35686 ft | 375 kts | 307° |
| 2026-05-05 12:49 | 52.04163 | 7.28192 | 35302 ft | 375 kts | 307° |
| 2026-05-05 12:49 | 52.05940 | 7.25082 | 34765 ft | 379 kts | 306° |
| 2026-05-05 12:50 | 52.07759 | 7.21889 | 33947 ft | 391 kts | 305° |
| 2026-05-05 12:50 | 52.09614 | 7.18563 | 32777 ft | 408 kts | 308° |
| 2026-05-05 12:50 | 52.11628 | 7.15154 | 31370 ft | 428 kts | 308° |
| 2026-05-05 12:50 | 52.13681 | 7.11558 | 30430 ft | 437 kts | 308° |
| 2026-05-05 12:51 | 52.15740 | 7.07927 | 29929 ft | 435 kts | 308° |
| 2026-05-05 12:51 | 52.17777 | 7.04341 | 29494 ft | 428 kts | 308° |
| 2026-05-05 12:51 | 52.19788 | 7.00803 | 29015 ft | 423 kts | 308° |
| 2026-05-05 12:51 | 52.21779 | 6.97286 | 28471 ft | 420 kts | 307° |
| 2026-05-05 12:52 | 52.23667 | 6.93686 | 27915 ft | 416 kts | 305° |
| 2026-05-05 12:52 | 52.25477 | 6.90017 | 27420 ft | 413 kts | 304° |
| 2026-05-05 12:52 | 52.27259 | 6.86356 | 26923 ft | 411 kts | 305° |
| 2026-05-05 12:52 | 52.29036 | 6.82730 | 26444 ft | 408 kts | 305° |
| 2026-05-05 12:53 | 52.30816 | 6.79133 | 25958 ft | 406 kts | 306° |
| 2026-05-05 12:53 | 52.32590 | 6.75565 | 25466 ft | 403 kts | 306° |
| 2026-05-05 12:53 | 52.34355 | 6.72014 | 24973 ft | 402 kts | 306° |
| 2026-05-05 12:53 | 52.36111 | 6.68481 | 24535 ft | 398 kts | 306° |
| 2026-05-05 12:54 | 52.39566 | 6.61512 | 23739 ft | 390 kts | 306° |
| 2026-05-05 12:54 | 52.41266 | 6.58075 | 23318 ft | 387 kts | 306° |
| 2026-05-05 12:54 | 52.42952 | 6.54663 | 22875 ft | 383 kts | 306° |
| 2026-05-05 12:55 | 52.44616 | 6.51288 | 22465 ft | 379 kts | 306° |
| 2026-05-05 12:55 | 52.46179 | 6.47851 | 22060 ft | 373 kts | 296° |
| 2026-05-05 12:55 | 52.47050 | 6.43915 | 21550 ft | 363 kts | 278° |
| 2026-05-05 12:55 | 52.47344 | 6.39820 | 20885 ft | 359 kts | 273° |
| 2026-05-05 12:56 | 52.47520 | 6.35769 | 20282 ft | 354 kts | 272° |
| 2026-05-05 12:56 | 52.47678 | 6.31758 | 19686 ft | 350 kts | 272° |
| 2026-05-05 12:56 | 52.47843 | 6.27801 | 19106 ft | 346 kts | 273° |
| 2026-05-05 12:56 | 52.48019 | 6.23868 | 18580 ft | 346 kts | 273° |
| 2026-05-05 12:57 | 52.48203 | 6.19947 | 18206 ft | 344 kts | 273° |
| 2026-05-05 12:57 | 52.48390 | 6.16048 | 17775 ft | 343 kts | 273° |
| 2026-05-05 12:57 | 52.48579 | 6.12155 | 17353 ft | 341 kts | 273° |
| 2026-05-05 12:57 | 52.48763 | 6.08340 | 16937 ft | 339 kts | 273° |
| 2026-05-05 12:58 | 52.48949 | 6.04491 | 16527 ft | 338 kts | 273° |
| 2026-05-05 12:58 | 52.49131 | 6.00638 | 16091 ft | 330 kts | 274° |
| 2026-05-05 12:58 | 52.49332 | 5.96988 | 15702 ft | 321 kts | 274° |
| 2026-05-05 12:58 | 52.49503 | 5.93380 | 15293 ft | 314 kts | 273° |
| 2026-05-05 12:59 | 52.49657 | 5.89849 | 14897 ft | 307 kts | 273° |
| 2026-05-05 12:59 | 52.49806 | 5.86379 | 14513 ft | 302 kts | 274° |
| 2026-05-05 12:59 | 52.49962 | 5.82980 | 14122 ft | 296 kts | 274° |
| 2026-05-05 13:00 | 52.50260 | 5.76312 | 13321 ft | 295 kts | 275° |
| 2026-05-05 13:00 | 52.50406 | 5.72946 | 12973 ft | 296 kts | 274° |
| 2026-05-05 13:01 | 52.50857 | 5.62935 | 12938 ft | 295 kts | 274° |
| 2026-05-05 13:01 | 52.50999 | 5.59578 | 12940 ft | 294 kts | 272° |
| 2026-05-05 13:01 | 52.50735 | 5.56267 | 12941 ft | 294 kts | 252° |
| 2026-05-05 13:01 | 52.49868 | 5.53242 | 12946 ft | 294 kts | 240° |
| 2026-05-05 13:02 | 52.48829 | 5.50354 | 12945 ft | 295 kts | 242° |
| 2026-05-05 13:02 | 52.47795 | 5.47443 | 12937 ft | 297 kts | 239° |
| 2026-05-05 13:02 | 52.46695 | 5.44569 | 12944 ft | 297 kts | 239° |
| 2026-05-05 13:02 | 52.45588 | 5.41731 | 12937 ft | 295 kts | 237° |
| 2026-05-05 13:03 | 52.44450 | 5.38951 | 12933 ft | 292 kts | 239° |
| 2026-05-05 13:03 | 52.43451 | 5.36050 | 12942 ft | 294 kts | 241° |
| 2026-05-05 13:03 | 52.42390 | 5.33193 | 12942 ft | 294 kts | 239° |
| 2026-05-05 13:03 | 52.41316 | 5.30330 | 12944 ft | 297 kts | 239° |
| 2026-05-05 13:04 | 52.40266 | 5.27428 | 12922 ft | 297 kts | 240° |
| 2026-05-05 13:04 | 52.39164 | 5.24511 | 12624 ft | 304 kts | 238° |
| 2026-05-05 13:04 | 52.38040 | 5.21528 | 12358 ft | 305 kts | 239° |
| 2026-05-05 13:04 | 52.36947 | 5.18565 | 12059 ft | 302 kts | 239° |
| 2026-05-05 13:05 | 52.35863 | 5.15638 | 11781 ft | 299 kts | 239° |
| 2026-05-05 13:05 | 52.34788 | 5.12747 | 11513 ft | 296 kts | 239° |
| 2026-05-05 13:05 | 52.33773 | 5.09850 | 11250 ft | 292 kts | 249° |
| 2026-05-05 13:05 | 52.33406 | 5.06625 | 11002 ft | 288 kts | 269° |
| 2026-05-05 13:06 | 52.33399 | 5.03374 | 10766 ft | 285 kts | 270° |
| 2026-05-05 13:06 | 52.33398 | 5.00141 | 10511 ft | 285 kts | 270° |
| 2026-05-05 13:06 | 52.33386 | 4.96886 | 10261 ft | 286 kts | 269° |
| 2026-05-05 13:06 | 52.33374 | 4.94738 | 10096 ft | 285 kts | 269° |
| 2026-05-05 13:07 | 52.33345 | 4.90473 | 9960 ft | 277 kts | 269° |
| 2026-05-05 13:07 | 52.33328 | 4.88372 | 9621 ft | 283 kts | 269° |
| 2026-05-05 13:07 | 52.33303 | 4.85185 | 9316 ft | 276 kts | 269° |
| 2026-05-05 13:07 | 52.33277 | 4.82080 | 9000 ft | 270 kts | 269° |
| 2026-05-05 13:08 | 52.33251 | 4.79034 | 8743 ft | 267 kts | 269° |
| 2026-05-05 13:08 | 52.33225 | 4.75982 | 8507 ft | 270 kts | 269° |
| 2026-05-05 13:08 | 52.33196 | 4.72894 | 8250 ft | 274 kts | 269° |
| 2026-05-05 13:08 | 52.33167 | 4.69783 | 8000 ft | 273 kts | 269° |
| 2026-05-05 13:09 | 52.33137 | 4.66653 | 7556 ft | 278 kts | 269° |
| 2026-05-05 13:09 | 52.33105 | 4.63513 | 7257 ft | 273 kts | 269° |
| 2026-05-05 13:09 | 52.33073 | 4.60449 | 7010 ft | 265 kts | 269° |
| 2026-05-05 13:09 | 52.33042 | 4.57460 | 6773 ft | 262 kts | 269° |
| 2026-05-05 13:10 | 52.33011 | 4.54476 | 6544 ft | 262 kts | 269° |
| 2026-05-05 13:10 | 52.32979 | 4.51493 | 6310 ft | 262 kts | 269° |
| 2026-05-05 13:10 | 52.32945 | 4.48516 | 6062 ft | 262 kts | 269° |
| 2026-05-05 13:10 | 52.32911 | 4.45537 | 5807 ft | 262 kts | 269° |
| 2026-05-05 13:11 | 52.32867 | 4.42557 | 5564 ft | 262 kts | 266° |
| 2026-05-05 13:11 | 52.32320 | 4.39748 | 5294 ft | 262 kts | 234° |
| 2026-05-05 13:11 | 52.30965 | 4.37817 | 5078 ft | 261 kts | 205° |
| 2026-05-05 13:11 | 52.29237 | 4.37050 | 4848 ft | 258 kts | 185° |
| 2026-05-05 13:12 | 52.27460 | 4.36794 | 4607 ft | 255 kts | 181° |
| 2026-05-05 13:12 | 52.25694 | 4.36633 | 4364 ft | 253 kts | 176° |
| 2026-05-05 13:12 | 52.24061 | 4.37426 | 4130 ft | 244 kts | 142° |
| 2026-05-05 13:12 | 52.22903 | 4.39342 | 3938 ft | 233 kts | 119° |
| 2026-05-05 13:13 | 52.22211 | 4.41666 | 3714 ft | 224 kts | 110° |
| 2026-05-05 13:13 | 52.21577 | 4.43931 | 3536 ft | 214 kts | 109° |
| 2026-05-05 13:13 | 52.20983 | 4.46052 | 3406 ft | 201 kts | 105° |
| 2026-05-05 13:13 | 52.20858 | 4.48247 | 3246 ft | 192 kts | 86° |
| 2026-05-05 13:14 | 52.20832 | 4.50435 | 3068 ft | 193 kts | 89° |
| 2026-05-05 13:14 | 52.20863 | 4.52574 | 2909 ft | 182 kts | 69° |
| 2026-05-05 13:14 | 52.21550 | 4.54155 | 2805 ft | 168 kts | 47° |
| 2026-05-05 13:14 | 52.22151 | 4.55823 | 2595 ft | 178 kts | 65° |
| 2026-05-05 13:15 | 52.22737 | 4.57606 | 2359 ft | 178 kts | 57° |
| 2026-05-05 13:15 | 52.23396 | 4.59322 | 2094 ft | 177 kts | 59° |
| 2026-05-05 13:15 | 52.24030 | 4.61053 | 1843 ft | 174 kts | 52° |
| 2026-05-05 13:15 | 52.24698 | 4.62662 | 1586 ft | 166 kts | 56° |
| 2026-05-05 13:16 | 52.25270 | 4.64175 | 1404 ft | 153 kts | 53° |
| 2026-05-05 13:16 | 52.25827 | 4.65621 | 1186 ft | 145 kts | 56° |
| 2026-05-05 13:16 | 52.26321 | 4.66955 | 1001 ft | 132 kts | 56° |
| 2026-05-05 13:16 | 52.26800 | 4.68213 | 805 ft | 126 kts | 53° |
| 2026-05-05 13:17 | 52.27327 | 4.69495 | 633 ft | 143 kts | 60° |
| 2026-05-05 13:17 | 52.27824 | 4.70887 | 433 ft | 140 kts | 55° |
| 2026-05-05 13:17 | 52.28327 | 4.72196 | 247 ft | 133 kts | 56° |
| 2026-05-05 13:17 | 52.28803 | 4.73450 | 83 ft | 128 kts | 55° |
| 2026-05-05 13:18 | 52.29270 | 4.74657 | 3 ft | 115 kts | 58° |
| 2026-05-05 13:18 | 52.29632 | 4.75600 | -2 ft | 77 kts | 58° |
| 2026-05-05 13:18 | 52.29843 | 4.76151 | -5 ft | 48 kts | 58° |
| 2026-05-05 13:18 | 52.29961 | 4.76448 | -4 ft | 15 kts | 49° |
| 2026-05-05 13:19 | 52.30055 | 4.76561 | -3 ft | 17 kts | 29° |
| 2026-05-05 13:19 | 52.30155 | 4.76650 | -2 ft | 16 kts | 29° |
| 2026-05-05 13:19 | 52.30214 | 4.76697 | -2 ft | 6 kts | 26° |
| 2026-05-05 13:19 | 52.30249 | 4.76728 | -2 ft | 6 kts | 29° |
| 2026-05-05 13:20 | 52.30292 | 4.76743 | -2 ft | 7 kts | 351° |
| 2026-05-05 13:20 | 52.30343 | 4.76676 | -2 ft | 14 kts | 285° |
| 2026-05-05 13:20 | 52.30386 | 4.76561 | -2 ft | 0 kts | 329° |
| 2026-05-05 13:20 | 52.30399 | 4.76555 | -2 ft | 5 kts | 357° |
| 2026-05-05 13:21 | 52.30421 | 4.76583 | -2 ft | 0 kts | 60° |
| 2026-05-05 13:21 | 52.30426 | 4.76597 | -2 ft | 0 kts | 58° |
| 2026-05-05 13:21 | 52.30428 | 4.76602 | -2 ft | 0 kts | 58° |